Time;durP1;ratioP1;P1;durP2;ratioP2;P2;SDS_P1;SDS_P2;PMS_P1;PMS_P2;Temp;Humidity;BMP_temperature;BMP_pressure;BME280_temperature;BME280_humidity;BME280_pressure;Samples;Min_cycle;Max_cycle;Signal;HPM_P1;HPM_P2
2021/09/03 00:00:28;;;;;;;13.57;8.63;;;;;;;14.46;100.00;96394.16;1044099;28;20437;-67
2021/09/03 00:00:58;;;;;;;12.13;7.87;;;;;;;14.44;100.00;96392.84;1044192;28;20021;-67
2021/09/03 00:01:29;;;;;;;10.73;8.20;;;;;;;14.41;100.00;96385.34;1044239;28;20506;-65
2021/09/03 00:01:59;;;;;;;11.37;8.20;;;;;;;14.44;100.00;96390.97;1044202;28;20049;-66
2021/09/03 00:02:30;;;;;;;12.47;8.30;;;;;;;14.42;100.00;96392.31;1044452;28;20032;-66
2021/09/03 00:03:00;;;;;;;13.20;8.07;;;;;;;14.36;100.00;96394.25;1044188;28;20013;-67
2021/09/03 00:03:31;;;;;;;12.03;8.47;;;;;;;14.37;100.00;96385.09;1044316;28;20028;-67
2021/09/03 00:04:01;;;;;;;12.43;8.57;;;;;;;14.36;100.00;96390.78;1044493;28;20021;-67
2021/09/03 00:04:32;;;;;;;12.10;8.30;;;;;;;14.36;100.00;96394.25;1040135;28;20025;-67
2021/09/03 00:05:04;;;;;;;11.47;8.03;;;;;;;14.38;100.00;96391.28;1040140;28;20020;-67
2021/09/03 00:05:35;;;;;;;12.00;8.25;;;;;;;14.29;100.00;96393.81;1040110;28;20052;-67
2021/09/03 00:06:06;;;;;;;12.73;8.57;;;;;;;14.33;100.00;96392.16;1040455;28;20021;-67
2021/09/03 00:06:36;;;;;;;12.63;8.23;;;;;;;14.33;100.00;96397.53;1044129;28;20032;-67
2021/09/03 00:07:07;;;;;;;10.60;8.10;;;;;;;14.28;100.00;96390.31;1044181;28;20013;-67
2021/09/03 00:07:38;;;;;;;13.90;8.67;;;;;;;14.28;100.00;96400.28;1035913;28;20018;-66
2021/09/03 00:08:08;;;;;;;13.63;8.17;;;;;;;14.30;100.00;96388.13;1032003;28;20277;-66
2021/09/03 00:08:38;;;;;;;11.80;8.77;;;;;;;14.33;100.00;96400.22;1035945;28;20026;-67
2021/09/03 00:09:09;;;;;;;12.47;8.63;;;;;;;14.34;100.00;96398.34;1036194;28;20092;-67
2021/09/03 00:09:39;;;;;;;10.93;7.70;;;;;;;14.36;100.00;96396.16;1044241;28;20025;-67
2021/09/03 00:10:10;;;;;;;10.17;7.43;;;;;;;14.36;100.00;96398.84;1044541;28;20041;-67
2021/09/03 00:10:41;;;;;;;11.98;8.32;;;;;;;14.34;100.00;96399.13;1039724;28;20036;-67
2021/09/03 00:11:11;;;;;;;16.50;8.73;;;;;;;14.30;100.00;96393.50;1039578;28;20021;-67
2021/09/03 00:11:42;;;;;;;14.17;8.80;;;;;;;14.27;100.00;96401.34;1040064;28;20029;-67
2021/09/03 00:12:12;;;;;;;12.03;7.83;;;;;;;14.21;100.00;96397.09;1036149;28;20014;-66
2021/09/03 00:12:42;;;;;;;12.20;8.17;;;;;;;14.26;100.00;96391.66;1044118;28;20090;-66
2021/09/03 00:13:13;;;;;;;13.20;8.00;;;;;;;14.23;100.00;96393.06;1044145;28;20009;-66
2021/09/03 00:13:43;;;;;;;10.40;7.83;;;;;;;14.28;100.00;96395.69;1040035;28;20029;-67
2021/09/03 00:14:14;;;;;;;14.30;8.77;;;;;;;14.27;100.00;96399.44;1044233;28;20009;-67
2021/09/03 00:14:44;;;;;;;14.57;8.77;;;;;;;14.28;100.00;96395.69;1044183;28;20024;-67
2021/09/03 00:15:15;;;;;;;12.17;8.60;;;;;;;14.33;100.00;96392.16;1044165;28;20021;-67
2021/09/03 00:15:45;;;;;;;13.80;8.40;;;;;;;14.30;100.00;96390.03;1044541;28;20049;-67
2021/09/03 00:16:18;;;;;;;11.53;8.03;;;;;;;14.30;100.00;96385.44;1044215;28;20017;-67
2021/09/03 00:16:48;;;;;;;14.40;8.43;;;;;;;14.28;100.00;96387.63;1044175;28;20509;-67
2021/09/03 00:17:19;;;;;;;11.80;8.43;;;;;;;14.28;100.00;96387.63;1035879;28;20014;-67
2021/09/03 00:17:49;;;;;;;14.97;8.83;;;;;;;14.29;100.00;96394.59;1036384;28;20018;-67
2021/09/03 00:18:20;;;;;;;12.97;7.70;;;;;;;14.28;100.00;96389.53;1031904;28;20014;-67
2021/09/03 00:18:50;;;;;;;14.13;8.33;;;;;;;14.28;100.00;96387.63;1027936;28;20014;-67
2021/09/03 00:19:20;;;;;;;11.40;8.23;;;;;;;14.30;100.00;96392.72;1035973;28;20021;-67
2021/09/03 00:19:51;;;;;;;10.47;8.03;;;;;;;14.31;100.00;96395.09;1035877;28;20029;-67
2021/09/03 00:20:21;;;;;;;11.90;7.57;;;;;;;14.33;100.00;96389.47;1044217;28;20037;-67
2021/09/03 00:20:52;;;;;;;11.00;7.93;;;;;;;14.31;100.00;96392.41;1044351;28;20048;-67
2021/09/03 00:21:22;;;;;;;10.50;7.33;;;;;;;14.34;100.00;96391.06;1044441;28;20016;-67
2021/09/03 00:21:53;;;;;;;12.90;8.30;;;;;;;14.33;100.00;96394.84;1044523;28;20028;-67
2021/09/03 00:22:23;;;;;;;11.07;8.47;;;;;;;14.34;100.00;96395.66;1044196;28;20052;-67
2021/09/03 00:22:53;;;;;;;11.37;8.13;;;;;;;14.25;100.00;96392.75;1044430;28;20055;-66
2021/09/03 00:23:24;;;;;;;12.60;9.00;;;;;;;14.26;100.00;96386.28;1044411;28;20017;-66
2021/09/03 00:23:54;;;;;;;11.53;8.27;;;;;;;14.25;100.00;96393.56;1044509;28;20285;-67
2021/09/03 00:24:25;;;;;;;12.63;8.87;;;;;;;14.26;100.00;96389.78;1044145;28;20005;-67
2021/09/03 00:24:55;;;;;;;11.83;8.20;;;;;;;14.26;100.00;96386.28;1044115;28;20330;-67
2021/09/03 00:25:26;;;;;;;13.67;8.37;;;;;;;14.23;100.00;96386.88;1040027;28;20095;-67
2021/09/03 00:25:56;;;;;;;14.17;8.77;;;;;;;14.24;100.00;96388.47;1040146;28;20475;-67
2021/09/03 00:26:26;;;;;;;12.47;8.60;;;;;;;14.17;100.00;96398.75;1044060;28;20017;-66
2021/09/03 00:26:57;;;;;;;18.03;9.37;;;;;;;14.19;100.00;96394.69;1040023;28;20351;-67
2021/09/03 00:27:27;;;;;;;17.03;9.37;;;;;;;14.21;100.00;96395.19;1039948;28;20490;-67
2021/09/03 00:27:58;;;;;;;15.73;8.83;;;;;;;14.19;100.00;96396.59;1040048;28;20025;-67
2021/09/03 00:28:28;;;;;;;12.20;8.90;;;;;;;14.17;100.00;96394.16;1039979;28;20029;-67
2021/09/03 00:28:59;;;;;;;12.80;8.63;;;;;;;14.17;100.00;96388.78;1044193;28;20111;-67
2021/09/03 00:29:29;;;;;;;13.47;8.93;;;;;;;14.18;100.00;96395.00;1044101;28;20040;-67
2021/09/03 00:29:59;;;;;;;15.43;8.33;;;;;;;14.20;100.00;96392.81;1044114;28;20492;-67
2021/09/03 00:30:30;;;;;;;13.47;8.47;;;;;;;14.20;100.00;96398.97;1044145;28;20021;-67
2021/09/03 00:31:00;;;;;;;12.03;8.50;;;;;;;14.19;100.00;96397.38;1044193;28;20013;-66
2021/09/03 00:31:31;;;;;;;13.23;9.00;;;;;;;14.20;100.00;96393.59;1044434;28;20012;-67
2021/09/03 00:32:01;;;;;;;14.50;8.63;;;;;;;14.19;100.00;96385.84;1044488;28;20374;-67
2021/09/03 00:32:31;;;;;;;13.97;8.50;;;;;;;14.18;100.00;96395.78;1044409;28;20040;-66
2021/09/03 00:33:02;;;;;;;12.83;8.80;;;;;;;14.18;100.00;96389.63;1044503;28;20028;-66
2021/09/03 00:33:32;;;;;;;14.77;8.60;;;;;;;14.19;100.00;96391.22;1044413;28;20040;-66
2021/09/03 00:34:03;;;;;;;13.90;8.83;;;;;;;14.17;100.00;96388.78;1044083;28;20091;-66
2021/09/03 00:34:33;;;;;;;13.17;8.27;;;;;;;14.20;100.00;96387.44;1044178;28;20135;-65
2021/09/03 00:35:04;;;;;;;12.13;8.30;;;;;;;14.21;100.00;96394.41;1044202;28;20059;-66
2021/09/03 00:35:35;;;;;;;13.82;8.52;;;;;;;14.17;100.00;96390.69;1044030;28;20532;-66
2021/09/03 00:36:05;;;;;;;13.57;8.20;;;;;;;14.16;100.00;96386.38;1044164;28;20032;-66
2021/09/03 00:36:36;;;;;;;11.83;8.33;;;;;;;14.16;100.00;96383.69;1044466;28;20009;-66
2021/09/03 00:37:06;;;;;;;12.87;9.10;;;;;;;14.18;100.00;96387.72;1044471;28;20461;-66
2021/09/03 00:37:37;;;;;;;10.67;8.30;;;;;;;14.16;100.00;96381.00;1044388;28;20017;-66
2021/09/03 00:38:07;;;;;;;13.10;8.60;;;;;;;14.17;100.00;96382.59;1039954;28;20017;-66
2021/09/03 00:38:37;;;;;;;11.97;8.50;;;;;;;14.14;100.00;96384.00;1039971;28;20026;-66
2021/09/03 00:39:08;;;;;;;13.23;8.57;;;;;;;14.13;100.00;96381.59;1035512;28;20018;-66
2021/09/03 00:39:38;;;;;;;12.23;8.60;;;;;;;14.17;100.00;96394.16;1035987;28;20018;-66
2021/09/03 00:40:09;;;;;;;13.17;8.17;;;;;;;14.12;100.00;96386.16;1044113;28;20017;-66
2021/09/03 00:40:39;;;;;;;12.40;8.10;;;;;;;14.15;100.00;96390.16;1044023;28;20074;-66
2021/09/03 00:41:10;;;;;;;13.60;8.33;;;;;;;14.14;100.00;96388.56;1043863;28;20021;-66
2021/09/03 00:41:40;;;;;;;18.13;9.00;;;;;;;14.14;100.00;96385.88;1044065;28;20513;-66
2021/09/03 00:42:11;;;;;;;11.83;8.63;;;;;;;14.13;100.00;96386.97;1039928;28;20398;-68
2021/09/03 00:42:41;;;;;;;11.13;8.10;;;;;;;14.13;100.00;96390.47;1040015;28;20083;-67
2021/09/03 00:43:11;;;;;;;14.43;8.13;;;;;;;14.13;100.00;96379.72;1044072;28;20029;-67
2021/09/03 00:43:42;;;;;;;12.43;8.60;;;;;;;14.14;100.00;96383.19;1039968;28;20022;-67
2021/09/03 00:44:12;;;;;;;10.60;7.87;;;;;;;14.13;100.00;96382.41;1039962;28;20028;-67
2021/09/03 00:44:43;;;;;;;13.93;9.00;;;;;;;14.10;100.00;96382.16;1035850;28;20033;-67
2021/09/03 00:45:14;;;;;;;12.73;8.63;;;;;;;14.11;100.00;96375.69;1035945;28;20034;-67
2021/09/03 00:45:44;;;;;;;12.67;7.90;;;;;;;14.10;100.00;96377.56;1031639;28;20018;-67
2021/09/03 00:46:14;;;;;;;15.03;8.40;;;;;;;14.12;100.00;96380.75;1035553;28;20022;-67
2021/09/03 00:46:45;;;;;;;13.53;8.83;;;;;;;14.08;100.00;96378.97;1036002;28;20018;-67
2021/09/03 00:47:15;;;;;;;11.27;8.13;;;;;;;13.99;100.00;96379.56;1040099;28;20081;-67
2021/09/03 00:47:46;;;;;;;12.73;8.37;;;;;;;13.95;100.00;96381.19;1044331;28;20066;-67
2021/09/03 00:48:16;;;;;;;12.37;8.10;;;;;;;13.95;100.00;96370.44;1044123;28;20024;-67
2021/09/03 00:48:46;;;;;;;14.20;8.73;;;;;;;13.96;100.00;96387.38;1044132;28;20013;-67
2021/09/03 00:49:17;;;;;;;12.23;8.23;;;;;;;13.99;100.00;96376.88;1039907;28;20028;-67
2021/09/03 00:49:47;;;;;;;14.40;8.40;;;;;;;14.04;100.00;96379.50;1040060;28;20016;-67
2021/09/03 00:50:18;;;;;;;12.17;8.23;;;;;;;13.98;100.00;96382.53;1044035;28;20084;-67
2021/09/03 00:50:48;;;;;;;11.53;8.07;;;;;;;13.98;100.00;96377.16;1044115;28;20021;-67
2021/09/03 00:51:19;;;;;;;11.80;8.43;;;;;;;13.99;100.00;96379.56;1039878;28;20014;-66
2021/09/03 00:51:49;;;;;;;12.13;7.83;;;;;;;13.96;100.00;96374.72;1035911;28;20025;-66
2021/09/03 00:52:19;;;;;;;13.03;8.40;;;;;;;13.98;100.00;96377.94;1031821;28;20407;-65
2021/09/03 00:52:50;;;;;;;13.17;8.53;;;;;;;13.98;100.00;96377.94;1027960;28;20495;-65
2021/09/03 00:53:20;;;;;;;12.43;9.00;;;;;;;13.99;100.00;96381.44;1031975;28;20018;-65
2021/09/03 00:53:51;;;;;;;12.93;8.40;;;;;;;14.01;100.00;96373.88;1032027;28;20490;-66
2021/09/03 00:54:21;;;;;;;12.27;8.20;;;;;;;13.99;100.00;96382.25;1031864;28;20533;-66
2021/09/03 00:54:52;;;;;;;12.07;8.43;;;;;;;14.03;100.00;96383.28;1035724;28;20021;-66
2021/09/03 00:55:22;;;;;;;11.60;8.20;;;;;;;14.03;100.00;96380.59;1035903;28;20081;-66
2021/09/03 00:55:53;;;;;;;11.90;8.53;;;;;;;14.04;100.00;96381.41;1036060;28;20014;-66
2021/09/03 00:56:23;;;;;;;14.00;8.50;;;;;;;14.04;100.00;96378.72;1039851;28;20017;-66
2021/09/03 00:56:53;;;;;;;14.23;7.87;;;;;;;14.04;100.00;96378.72;1035850;28;20387;-66
2021/09/03 00:57:27;;;;;;;12.07;8.17;;;;;;;14.06;100.00;96376.53;1035958;28;20415;-67
2021/09/03 00:57:57;;;;;;;11.68;8.65;;;;;;;14.00;100.00;96381.16;1039990;28;20045;-67
2021/09/03 00:58:28;;;;;;;13.57;8.37;;;;;;;13.96;100.00;96376.63;1040402;28;20037;-67
2021/09/03 00:58:58;;;;;;;11.77;8.47;;;;;;;13.93;100.00;96386.06;1044195;28;20024;-66
2021/09/03 00:59:29;;;;;;;14.30;8.30;;;;;;;13.95;100.00;96375.00;1044428;28;20075;-67
2021/09/03 00:59:59;;;;;;;11.40;8.37;;;;;;;13.94;100.00;96374.22;1039886;28;20044;-67
2021/09/03 01:00:29;;;;;;;13.00;8.47;;;;;;;13.93;100.00;96377.19;1039901;28;20073;-67
2021/09/03 01:01:00;;;;;;;14.00;9.17;;;;;;;13.90;100.00;96378.53;1031754;28;20108;-67
2021/09/03 01:01:30;;;;;;;13.87;9.37;;;;;;;13.86;100.00;96380.19;1031863;28;20498;-66
2021/09/03 01:02:01;;;;;;;15.57;9.73;;;;;;;13.88;100.00;96383.41;1035853;28;20471;-67
2021/09/03 01:02:31;;;;;;;14.30;9.13;;;;;;;13.89;100.00;96379.63;1031785;28;20078;-67
2021/09/03 01:03:01;;;;;;;12.50;8.63;;;;;;;13.87;100.00;96381.81;1035974;28;20013;-66
2021/09/03 01:03:32;;;;;;;13.40;8.83;;;;;;;13.86;100.00;96379.38;1031780;28;20061;-66
2021/09/03 01:04:02;;;;;;;13.87;8.50;;;;;;;13.86;100.00;96384.75;1035970;28;20072;-66
2021/09/03 01:04:33;;;;;;;12.97;9.40;;;;;;;13.85;100.00;96377.78;1031719;28;20014;-66
2021/09/03 01:05:04;;;;;;;12.67;8.53;;;;;;;13.85;100.00;96383.97;1028035;28;20476;-66
2021/09/03 01:05:34;;;;;;;12.38;8.25;;;;;;;13.82;100.00;96372.97;1035759;28;20494;-66
2021/09/03 01:06:05;;;;;;;11.23;8.40;;;;;;;13.82;100.00;96376.47;1036082;28;20045;-66
2021/09/03 01:06:36;;;;;;;15.10;8.80;;;;;;;13.85;100.00;96373.22;1040104;28;20529;-66
2021/09/03 01:07:06;;;;;;;11.40;8.43;;;;;;;13.84;100.00;96379.69;1044114;28;20036;-66
2021/09/03 01:07:36;;;;;;;11.90;8.67;;;;;;;13.85;100.00;96375.91;1044325;28;20032;-66
2021/09/03 01:08:07;;;;;;;13.80;8.80;;;;;;;13.84;100.00;96371.63;1044222;28;20021;-66
2021/09/03 01:08:37;;;;;;;13.30;8.33;;;;;;;13.83;100.00;96378.06;1044235;28;20021;-66
2021/09/03 01:09:08;;;;;;;15.20;8.60;;;;;;;13.82;100.00;96371.09;1044405;28;20017;-66
2021/09/03 01:09:38;;;;;;;17.20;8.97;;;;;;;13.81;100.00;96369.47;1043933;28;20608;-66
2021/09/03 01:10:09;;;;;;;13.37;8.77;;;;;;;13.84;100.00;96376.19;1043795;28;20146;-66
2021/09/03 01:10:39;;;;;;;13.87;8.57;;;;;;;13.83;100.00;96378.06;1043737;28;20050;-66
2021/09/03 01:11:09;;;;;;;15.87;8.43;;;;;;;13.81;100.00;96379.44;1044129;28;20028;-67
2021/09/03 01:11:40;;;;;;;13.17;8.57;;;;;;;13.83;100.00;96377.28;1043712;28;20478;-67
2021/09/03 01:12:10;;;;;;;15.63;8.63;;;;;;;13.76;100.00;96372.22;1040008;28;20103;-67
2021/09/03 01:12:41;;;;;;;12.87;8.03;;;;;;;13.78;100.00;96373.53;1039921;28;20022;-68
2021/09/03 01:13:11;;;;;;;10.97;7.87;;;;;;;13.80;100.00;96373.25;1040078;28;20033;-67
2021/09/03 01:13:42;;;;;;;11.07;8.10;;;;;;;13.79;100.00;96382.41;1043960;28;20050;-67
2021/09/03 01:14:12;;;;;;;15.03;8.77;;;;;;;13.81;100.00;96379.44;1043741;28;20055;-67
2021/09/03 01:14:43;;;;;;;14.07;7.87;;;;;;;13.82;100.00;96376.47;1043964;28;20028;-67
2021/09/03 01:15:14;;;;;;;17.00;8.23;;;;;;;13.81;100.00;96377.53;1044054;28;20032;-65
2021/09/03 01:15:45;;;;;;;12.93;8.40;;;;;;;13.79;100.00;96377.81;1039927;28;20136;-65
2021/09/03 01:16:15;;;;;;;16.97;8.27;;;;;;;13.78;100.00;96376.22;1043800;28;20025;-66
2021/09/03 01:16:45;;;;;;;11.20;7.90;;;;;;;13.82;100.00;96373.78;1039930;28;20018;-66
2021/09/03 01:17:16;;;;;;;14.23;8.73;;;;;;;13.81;100.00;96368.69;1039933;28;20029;-65
2021/09/03 01:17:46;;;;;;;15.07;8.97;;;;;;;13.82;100.00;96372.97;1043684;28;20020;-65
2021/09/03 01:18:17;;;;;;;13.70;8.37;;;;;;;13.81;100.00;96374.84;1040000;28;20390;-66
2021/09/03 01:18:47;;;;;;;11.73;8.60;;;;;;;13.82;100.00;96371.09;1039918;28;20482;-66
2021/09/03 01:19:18;;;;;;;14.83;8.17;;;;;;;13.82;100.00;96372.97;1040016;28;20570;-66
2021/09/03 01:19:50;;;;;;;13.90;8.90;;;;;;;13.81;100.00;96372.16;1039782;28;20026;-66
2021/09/03 01:20:21;;;;;;;10.75;7.88;;;;;;;13.83;100.00;96370.03;1044136;28;20036;-66
2021/09/03 01:20:51;;;;;;;11.60;7.97;;;;;;;13.78;100.00;96375.44;1043897;28;20028;-67
2021/09/03 01:21:21;;;;;;;10.20;7.67;;;;;;;13.79;100.00;96368.97;1044030;28;20021;-67
2021/09/03 01:21:52;;;;;;;13.30;8.40;;;;;;;13.81;100.00;96374.06;1044018;28;20024;-66
2021/09/03 01:22:22;;;;;;;14.70;7.80;;;;;;;13.81;100.00;96368.69;1044326;28;20111;-67
2021/09/03 01:22:53;;;;;;;11.80;7.83;;;;;;;13.81;100.00;96366.00;1045159;28;20522;-67
2021/09/03 01:23:23;;;;;;;13.37;8.03;;;;;;;13.76;100.00;96370.31;1045158;28;20025;-67
2021/09/03 01:23:54;;;;;;;10.93;8.03;;;;;;;13.77;100.00;96374.63;1045179;28;20029;-66
2021/09/03 01:24:24;;;;;;;12.37;8.17;;;;;;;13.79;100.00;96366.28;1045207;28;20039;-66
2021/09/03 01:24:54;;;;;;;13.07;7.80;;;;;;;13.78;100.00;96362.81;1045198;28;20050;-66
2021/09/03 01:25:25;;;;;;;10.77;7.70;;;;;;;13.81;100.00;96371.38;1044819;28;20058;-67
2021/09/03 01:26:00;;;;;;;12.87;8.10;;;;;;;13.80;100.00;96362.50;1044991;28;20025;-67
2021/09/03 01:26:30;;;;;;;11.60;8.20;;;;;;;13.76;100.00;96361.47;1044658;28;20462;-66
2021/09/03 01:27:01;;;;;;;14.13;8.63;;;;;;;13.79;100.00;96368.97;1044818;28;20085;-66
2021/09/03 01:27:31;;;;;;;11.80;8.17;;;;;;;13.75;100.00;96360.66;1044534;28;20021;-66
2021/09/03 01:28:02;;;;;;;10.67;8.17;;;;;;;13.78;100.00;96365.47;1044876;28;20465;-67
2021/09/03 01:28:32;;;;;;;13.77;7.87;;;;;;;13.74;100.00;96369.00;1045208;28;20031;-66
2021/09/03 01:29:03;;;;;;;11.60;8.30;;;;;;;13.71;100.00;96359.63;1045145;28;20389;-66
2021/09/03 01:29:33;;;;;;;11.93;7.77;;;;;;;13.69;100.00;96361.78;1044964;28;20474;-66
2021/09/03 01:30:04;;;;;;;13.10;8.17;;;;;;;13.70;100.00;96357.22;1045143;28;20391;-67
2021/09/03 01:30:35;;;;;;;10.38;7.70;;;;;;;13.69;100.00;96361.78;1045117;28;20037;-67
2021/09/03 01:31:05;;;;;;;11.47;7.73;;;;;;;13.69;100.00;96350.25;1045140;28;20028;-67
2021/09/03 01:31:36;;;;;;;13.73;8.17;;;;;;;13.67;100.00;96361.28;1045073;28;20028;-67
2021/09/03 01:32:06;;;;;;;11.33;7.90;;;;;;;13.67;100.00;96363.16;1045093;28;20016;-67
2021/09/03 01:32:37;;;;;;;13.10;8.10;;;;;;;13.67;100.00;96360.47;1045167;28;20117;-66
2021/09/03 01:33:07;;;;;;;11.73;7.63;;;;;;;13.67;100.00;96357.78;1045077;28;20456;-67
2021/09/03 01:33:38;;;;;;;11.83;8.10;;;;;;;13.63;100.00;96348.69;1045150;28;20366;-66
2021/09/03 01:34:08;;;;;;;15.13;8.23;;;;;;;13.64;100.00;96361.03;1045134;28;20120;-67
2021/09/03 01:34:39;;;;;;;12.50;8.57;;;;;;;13.62;100.00;96358.63;1045138;28;20048;-66
2021/09/03 01:35:09;;;;;;;11.17;7.87;;;;;;;13.61;100.00;96358.88;1044791;28;20477;-66
2021/09/03 01:35:40;;;;;;;13.53;7.90;;;;;;;13.60;100.00;96358.09;1044729;28;20033;-66
2021/09/03 01:36:10;;;;;;;12.97;8.33;;;;;;;13.61;100.00;96350.84;1044878;28;20025;-66
2021/09/03 01:36:41;;;;;;;11.43;7.90;;;;;;;13.60;100.00;96357.28;1044824;28;20029;-66
2021/09/03 01:37:11;;;;;;;11.93;8.67;;;;;;;13.55;100.00;96355.44;1044837;28;20032;-66
2021/09/03 01:37:42;;;;;;;12.13;7.97;;;;;;;13.54;100.00;96353.84;1044757;28;20036;-66
2021/09/03 01:38:12;;;;;;;15.13;8.17;;;;;;;13.55;100.00;96355.44;1040701;28;20033;-68
2021/09/03 01:38:43;;;;;;;10.83;7.93;;;;;;;13.59;100.00;96358.38;1040794;28;20029;-67
2021/09/03 01:39:13;;;;;;;12.68;8.18;;;;;;;13.51;100.00;96357.06;1044767;28;20032;-66
2021/09/03 01:39:45;;;;;;;11.80;8.50;;;;;;;13.53;100.00;96349.56;1044534;28;20036;-67
2021/09/03 01:40:15;;;;;;;10.75;7.63;;;;;;;13.51;100.00;96349.03;1044686;28;20064;-67
2021/09/03 01:40:46;;;;;;;11.37;8.03;;;;;;;13.50;100.00;96361.66;1040276;28;20021;-67
2021/09/03 01:41:16;;;;;;;12.30;8.73;;;;;;;13.42;100.00;96358.78;1036429;28;20026;-67
2021/09/03 01:41:47;;;;;;;11.23;7.87;;;;;;;13.46;100.00;96357.13;1028740;28;20022;-67
2021/09/03 01:42:17;;;;;;;12.87;8.10;;;;;;;13.47;100.00;96356.84;1028575;28;20022;-67
2021/09/03 01:42:47;;;;;;;14.40;8.70;;;;;;;13.51;100.00;96352.53;1028636;28;20468;-67
2021/09/03 01:43:18;;;;;;;13.30;7.63;;;;;;;13.51;100.00;96357.91;1032679;28;20030;-67
2021/09/03 01:43:48;;;;;;;15.53;8.30;;;;;;;13.48;100.00;96355.78;1040733;28;20030;-66
2021/09/03 01:44:19;;;;;;;11.37;7.73;;;;;;;13.48;100.00;96345.03;1044738;28;20063;-67
2021/09/03 01:44:49;;;;;;;12.23;7.80;;;;;;;13.50;100.00;96358.97;1045174;28;20024;-66
2021/09/03 01:45:20;;;;;;;11.90;8.00;;;;;;;13.49;100.00;96357.38;1044825;28;20025;-67
2021/09/03 01:45:50;;;;;;;12.80;7.80;;;;;;;13.49;100.00;96343.94;1044833;28;20378;-67
2021/09/03 01:46:20;;;;;;;11.00;8.17;;;;;;;13.50;100.00;96350.09;1040619;28;20033;-66
2021/09/03 01:46:51;;;;;;;13.07;8.27;;;;;;;13.49;100.00;96359.25;1036685;28;20499;-67
2021/09/03 01:47:21;;;;;;;12.30;8.30;;;;;;;13.48;100.00;96352.28;1040647;28;20029;-67
2021/09/03 01:47:52;;;;;;;12.80;8.43;;;;;;;13.47;100.00;96351.47;1040766;28;20067;-66
2021/09/03 01:48:22;;;;;;;11.77;7.53;;;;;;;13.43;100.00;96358.50;1044722;28;20040;-67
2021/09/03 01:48:52;;;;;;;11.23;7.93;;;;;;;13.38;100.00;96355.03;1045143;28;20489;-67
2021/09/03 01:49:23;;;;;;;11.53;7.83;;;;;;;13.40;100.00;96355.53;1044718;28;20080;-66
2021/09/03 01:49:54;;;;;;;11.47;7.97;;;;;;;13.42;100.00;96351.53;1040626;28;20056;-66
2021/09/03 01:50:25;;;;;;;12.35;7.85;;;;;;;13.38;100.00;96357.72;1040560;28;20383;-66
2021/09/03 01:50:55;;;;;;;12.03;8.33;;;;;;;13.38;100.00;96355.84;1032573;28;20101;-66
2021/09/03 01:51:26;;;;;;;13.87;8.67;;;;;;;13.30;100.00;96348.34;1036326;28;20510;-66
2021/09/03 01:51:56;;;;;;;11.87;8.73;;;;;;;13.37;100.00;96356.91;1040733;28;20033;-66
2021/09/03 01:52:27;;;;;;;15.10;8.13;;;;;;;13.39;100.00;96360.13;1040535;28;20049;-66
2021/09/03 01:52:57;;;;;;;14.10;8.73;;;;;;;13.41;100.00;96355.28;1045053;28;20025;-66
2021/09/03 01:53:27;;;;;;;11.83;8.60;;;;;;;13.41;100.00;96355.28;1045035;28;20017;-67
2021/09/03 01:53:58;;;;;;;10.10;7.67;;;;;;;13.41;100.00;96363.34;1045118;28;20056;-67
2021/09/03 01:54:29;;;;;;;13.07;8.40;;;;;;;13.41;100.00;96355.28;1044962;28;20033;-66
2021/09/03 01:54:59;;;;;;;14.03;8.23;;;;;;;13.40;100.00;96360.91;1044699;28;20025;-66
2021/09/03 01:55:30;;;;;;;11.67;7.83;;;;;;;13.41;100.00;96357.16;1036549;28;20034;-66
2021/09/03 01:56:00;;;;;;;11.33;8.03;;;;;;;13.34;100.00;96354.78;1036555;28;20418;-66
2021/09/03 01:56:30;;;;;;;13.53;8.13;;;;;;;13.32;100.00;96359.63;1032440;28;20495;-66
2021/09/03 01:57:01;;;;;;;13.13;8.47;;;;;;;13.38;100.00;96361.19;1036488;28;20090;-66
2021/09/03 01:57:31;;;;;;;12.83;8.40;;;;;;;13.38;100.00;96361.19;1044618;28;20024;-66
2021/09/03 01:58:02;;;;;;;10.63;7.33;;;;;;;13.39;100.00;96362.00;1044763;28;20033;-66
2021/09/03 01:58:32;;;;;;;11.07;7.97;;;;;;;13.38;100.00;96363.09;1045021;28;20503;-67
2021/09/03 01:59:03;;;;;;;13.40;8.43;;;;;;;13.38;100.00;96355.03;1045074;28;20039;-66
2021/09/03 01:59:33;;;;;;;10.57;8.10;;;;;;;13.38;100.00;96363.88;1045022;28;20382;-66
2021/09/03 02:00:04;;;;;;;11.57;8.13;;;;;;;13.33;100.00;96355.88;1044951;28;20028;-66
2021/09/03 02:00:35;;;;;;;10.73;7.63;;;;;;;13.27;100.00;96360.47;1044943;28;20025;-66
2021/09/03 02:01:05;;;;;;;11.73;8.10;;;;;;;13.25;100.00;96361.81;1044952;28;20032;-67
2021/09/03 02:01:36;;;;;;;13.10;8.00;;;;;;;13.24;100.00;96360.22;1044980;28;20031;-66
2021/09/03 02:02:06;;;;;;;14.13;8.47;;;;;;;13.24;100.00;96360.22;1044877;28;20381;-66
2021/09/03 02:02:36;;;;;;;13.23;8.70;;;;;;;13.25;100.00;96365.28;1044995;28;20412;-66
2021/09/03 02:03:07;;;;;;;12.67;7.80;;;;;;;13.24;100.00;96362.91;1044967;28;20036;-66
2021/09/03 02:03:37;;;;;;;14.43;7.87;;;;;;;13.25;100.00;96364.50;1044976;28;20033;-66
2021/09/03 02:04:08;;;;;;;11.43;7.87;;;;;;;13.24;100.00;96368.25;1045033;28;20056;-66
2021/09/03 02:04:38;;;;;;;9.77;7.90;;;;;;;13.21;100.00;96361.59;1044941;28;20024;-66
2021/09/03 02:05:09;;;;;;;17.50;7.87;;;;;;;13.23;100.00;96367.47;1040462;28;20373;-66
2021/09/03 02:05:40;;;;;;;13.15;8.25;;;;;;;13.25;100.00;96370.66;1036448;28;20101;-66
2021/09/03 02:06:11;;;;;;;11.40;7.95;;;;;;;13.27;100.00;96368.53;1036533;28;20082;-66
2021/09/03 02:06:41;;;;;;;13.13;7.87;;;;;;;13.31;100.00;96367.94;1036861;28;20030;-66
2021/09/03 02:07:11;;;;;;;11.60;7.57;;;;;;;13.26;100.00;96369.59;1044628;28;20114;-66
2021/09/03 02:07:42;;;;;;;12.43;8.30;;;;;;;13.22;100.00;96365.88;1044655;28;20080;-66
2021/09/03 02:08:12;;;;;;;14.77;8.00;;;;;;;13.20;100.00;96370.66;1044747;28;20067;-66
2021/09/03 02:08:43;;;;;;;12.60;8.43;;;;;;;13.18;100.00;96361.28;1044655;28;20020;-66
2021/09/03 02:09:13;;;;;;;11.80;8.10;;;;;;;13.19;100.00;96360.22;1045022;28;20036;-66
2021/09/03 02:09:43;;;;;;;12.70;8.10;;;;;;;13.19;100.00;96363.69;1044994;28;20029;-66
2021/09/03 02:10:14;;;;;;;10.63;7.83;;;;;;;13.21;100.00;96363.44;1044685;28;20025;-67
2021/09/03 02:10:44;;;;;;;12.07;8.70;;;;;;;13.22;100.00;96367.75;1044613;28;20453;-66
2021/09/03 02:11:15;;;;;;;11.60;8.13;;;;;;;13.20;100.00;96357.25;1044660;28;20033;-67
2021/09/03 02:11:45;;;;;;;13.83;7.77;;;;;;;13.25;100.00;96361.81;1044655;28;20537;-66
2021/09/03 02:12:16;;;;;;;10.30;7.53;;;;;;;13.27;100.00;96365.03;1045035;28;20043;-67
2021/09/03 02:12:46;;;;;;;12.93;8.17;;;;;;;13.27;100.00;96360.47;1044965;28;20378;-66
2021/09/03 02:13:16;;;;;;;11.07;8.10;;;;;;;13.25;100.00;96353.75;1044620;28;20504;-66
2021/09/03 02:13:47;;;;;;;10.47;7.80;;;;;;;13.26;100.00;96360.75;1040536;28;20028;-66
2021/09/03 02:14:17;;;;;;;13.03;8.73;;;;;;;13.26;100.00;96353.50;1040574;28;20049;-66
2021/09/03 02:14:48;;;;;;;10.67;7.97;;;;;;;13.24;100.00;96358.31;1040582;28;20029;-66
2021/09/03 02:15:19;;;;;;;13.63;8.50;;;;;;;13.24;100.00;96354.84;1044233;28;20025;-66
2021/09/03 02:15:49;;;;;;;12.90;7.93;;;;;;;13.24;100.00;96354.84;1044967;28;20044;-66
2021/09/03 02:16:20;;;;;;;13.80;7.97;;;;;;;13.23;100.00;96351.38;1044669;28;20036;-66
2021/09/03 02:16:50;;;;;;;12.27;8.07;;;;;;;13.24;100.00;96358.31;1040500;28;20021;-67
2021/09/03 02:17:21;;;;;;;11.87;8.20;;;;;;;13.21;100.00;96353.53;1036449;28;20525;-66
2021/09/03 02:17:51;;;;;;;11.70;8.00;;;;;;;13.21;100.00;96347.34;1036524;28;20054;-66
2021/09/03 02:18:22;;;;;;;12.53;7.43;;;;;;;13.19;100.00;96352.97;1032466;28;20057;-66
2021/09/03 02:18:52;;;;;;;12.53;8.13;;;;;;;13.18;100.00;96347.88;1036576;28;20450;-66
2021/09/03 02:19:22;;;;;;;12.40;8.93;;;;;;;13.18;100.00;96350.56;1040424;28;20478;-66
2021/09/03 02:19:53;;;;;;;11.43;8.50;;;;;;;13.12;100.00;96349.78;1040407;28;20030;-66
2021/09/03 02:20:24;;;;;;;13.50;8.60;;;;;;;13.17;100.00;96355.13;1040259;28;20034;-67